Time;durP1;ratioP1;P1;durP2;ratioP2;P2;SDS_P1;SDS_P2;PMS_P1;PMS_P2;Temp;Humidity;BMP_temperature;BMP_pressure;BME280_temperature;BME280_humidity;BME280_pressure;Samples;Min_cycle;Max_cycle;Signal;HPM_P1;HPM_P2
2023/10/31 00:00:24;;;;;;;;;;;11.00;80.20;;;;;;4172614;28;19963;-84
2023/10/31 00:02:44;;;;;;;;;;;10.90;80.00;;;;;;4172409;28;19917;-85
2023/10/31 00:05:05;;;;;;;;;;;10.90;79.80;;;;;;4169951;28;19916;-86
2023/10/31 00:07:26;;;;;;;;;;;10.90;79.80;;;;;;4172847;28;20411;-85
2023/10/31 00:09:46;;;;;;;;;;;11.00;79.90;;;;;;4168016;28;20452;-85
2023/10/31 00:12:07;;;;;;;;;;;10.90;80.20;;;;;;4157990;28;19917;-87
2023/10/31 00:14:27;;;;;;;;;;;10.90;80.10;;;;;;4160177;28;20280;-85
2023/10/31 00:16:48;;;;;;;;;;;11.00;80.20;;;;;;4156040;28;19971;-85
2023/10/31 00:19:09;;;;;;;;;;;11.00;80.20;;;;;;4168883;28;19921;-85
2023/10/31 00:21:30;;;;;;;;;;;11.00;80.20;;;;;;4172003;28;19978;-86
2023/10/31 00:23:50;;;;;;;;;;;10.90;80.10;;;;;;4169878;28;19920;-84
2023/10/31 00:26:11;;;;;;;;;;;11.00;80.20;;;;;;4170437;28;20002;-85
2023/10/31 00:28:31;;;;;;;;;;;10.90;80.30;;;;;;4157097;28;19917;-85
2023/10/31 00:30:52;;;;;;;;;;;10.90;80.40;;;;;;4171017;28;20444;-86
2023/10/31 00:33:12;;;;;;;;;;;11.00;80.60;;;;;;4162934;28;19955;-85
2023/10/31 00:35:33;;;;;;;;;;;10.90;80.80;;;;;;4167654;28;19940;-85
2023/10/31 00:37:53;;;;;;;;;;;10.90;80.70;;;;;;4167244;28;19995;-84
2023/10/31 00:40:16;;;;;;;;;;;10.90;80.90;;;;;;4170209;28;19920;-85
2023/10/31 00:42:41;;;;;;;;;;;10.90;81.00;;;;;;4169246;28;19920;-84
2023/10/31 00:45:02;;;;;;;;;;;10.90;81.20;;;;;;4173010;28;19947;-85
2023/10/31 00:47:23;;;;;;;;;;;10.90;81.20;;;;;;4168921;28;19917;-85
2023/10/31 00:49:43;;;;;;;;;;;10.90;81.60;;;;;;4154420;28;19925;-85
2023/10/31 00:52:04;;;;;;;;;;;11.00;82.00;;;;;;4153747;28;19918;-85
2023/10/31 00:54:25;;;;;;;;;;;10.90;82.00;;;;;;4163230;28;19921;-85
2023/10/31 00:56:45;;;;;;;;;;;10.90;81.90;;;;;;4167665;28;19925;-85
2023/10/31 00:59:06;;;;;;;;;;;10.90;81.90;;;;;;4194478;28;19905;-85
2023/10/31 01:01:26;;;;;;;;;;;10.90;82.10;;;;;;4162868;28;19925;-84
2023/10/31 01:03:47;;;;;;;;;;;11.00;82.00;;;;;;4165652;28;19947;-84
2023/10/31 01:06:08;;;;;;;;;;;11.00;82.00;;;;;;4172005;28;20020;-84
2023/10/31 01:08:29;;;;;;;;;;;10.90;81.80;;;;;;4168794;28;20034;-84
2023/10/31 01:10:50;;;;;;;;;;;11.00;82.00;;;;;;4154348;28;19929;-84
2023/10/31 01:13:10;;;;;;;;;;;10.90;82.00;;;;;;4166664;28;19931;-85
2023/10/31 01:15:11;;;;;;;;;;;10.90;82.00;;;;;;4165883;28;19925;-85
2023/10/31 01:17:12;;;;;;;;;;;11.00;82.10;;;;;;4152614;28;19916;-84
2023/10/31 01:19:12;;;;;;;;;;;10.90;82.00;;;;;;4170068;28;19917;-85
2023/10/31 01:21:13;;;;;;;;;;;11.00;82.10;;;;;;4152326;28;20012;-85
2023/10/31 01:23:13;;;;;;;;;;;10.90;81.90;;;;;;4170944;28;19921;-84
2023/10/31 01:25:14;;;;;;;;;;;10.90;82.20;;;;;;4153438;28;20404;-85
2023/10/31 01:27:14;;;;;;;;;;;11.00;82.30;;;;;;4165076;28;19955;-84
2023/10/31 01:29:15;;;;;;;;;;;11.00;82.10;;;;;;4171098;28;19921;-84
2023/10/31 01:31:15;;;;;;;;;;;11.00;82.50;;;;;;4169034;28;19940;-84
2023/10/31 01:33:16;;;;;;;;;;;10.90;82.30;;;;;;4156556;28;20461;-84
2023/10/31 01:35:17;;;;;;;;;;;11.00;82.10;;;;;;4172305;28;19921;-84
2023/10/31 01:37:19;;;;;;;;;;;11.00;82.30;;;;;;4169026;28;19923;-85
2023/10/31 01:39:19;;;;;;;;;;;10.90;82.50;;;;;;4169778;28;20039;-84
2023/10/31 01:41:20;;;;;;;;;;;11.10;82.50;;;;;;4169813;28;19942;-84
2023/10/31 01:43:40;;;;;;;;;;;11.00;82.00;;;;;;4168829;28;19924;-84
2023/10/31 01:46:01;;;;;;;;;;;11.10;82.10;;;;;;4170408;28;19952;-85
2023/10/31 01:48:23;;;;;;;;;;;11.00;82.00;;;;;;4170073;28;19975;-85
2023/10/31 01:50:44;;;;;;;;;;;11.00;81.90;;;;;;4158214;28;19996;-84
2023/10/31 01:53:04;;;;;;;;;;;11.10;82.00;;;;;;4151117;28;19919;-85
2023/10/31 01:55:27;;;;;;;;;;;11.00;82.00;;;;;;4168982;28;19917;-84
2023/10/31 01:57:48;;;;;;;;;;;11.10;81.90;;;;;;4169098;28;19925;-84
2023/10/31 02:00:09;;;;;;;;;;;11.20;82.10;;;;;;4172114;28;19913;-84
2023/10/31 02:02:31;;;;;;;;;;;11.10;81.90;;;;;;4155189;28;19920;-84
2023/10/31 02:04:52;;;;;;;;;;;11.10;81.90;;;;;;4161817;28;19918;-84
2023/10/31 02:07:13;;;;;;;;;;;11.10;82.00;;;;;;4169879;28;19912;-85
2023/10/31 02:09:33;;;;;;;;;;;11.20;82.20;;;;;;4189192;28;19921;-84
2023/10/31 02:11:38;;;;;;;;;;;11.20;82.20;;;;;;4171869;28;20221;-85
2023/10/31 02:13:39;;;;;;;;;;;11.10;82.10;;;;;;4194296;28;19908;-85
2023/10/31 02:15:40;;;;;;;;;;;11.10;82.20;;;;;;4175155;28;19921;-84
2023/10/31 02:17:40;;;;;;;;;;;11.30;82.70;;;;;;4157010;28;20055;-85
2023/10/31 02:19:41;;;;;;;;;;;11.30;83.50;;;;;;4155126;28;19909;-84
2023/10/31 02:21:42;;;;;;;;;;;11.10;83.80;;;;;;4150289;28;20620;-84
2023/10/31 02:23:42;;;;;;;;;;;11.20;83.30;;;;;;4167847;28;19917;-84
2023/10/31 02:25:43;;;;;;;;;;;11.20;82.80;;;;;;4150545;28;19936;-84
2023/10/31 02:27:43;;;;;;;;;;;11.30;82.90;;;;;;4135307;28;20410;-84
2023/10/31 02:29:44;;;;;;;;;;;11.30;83.20;;;;;;4171019;28;19925;-84
2023/10/31 02:31:45;;;;;;;;;;;11.30;82.90;;;;;;4162752;28;19913;-84
2023/10/31 02:33:45;;;;;;;;;;;11.20;83.30;;;;;;4173592;28;20314;-85
2023/10/31 02:35:46;;;;;;;;;;;11.20;83.60;;;;;;4149599;28;20493;-84
2023/10/31 02:37:47;;;;;;;;;;;11.20;84.10;;;;;;4173407;28;19924;-84
2023/10/31 02:39:50;;;;;;;;;;;11.20;83.90;;;;;;4153256;28;19921;-85
2023/10/31 02:42:05;;;;;;;;;;;11.20;84.10;;;;;;4153242;28;19921;-84
2023/10/31 02:44:08;;;;;;;;;;;11.20;84.30;;;;;;4153223;28;20346;-83
2023/10/31 02:46:13;;;;;;;;;;;11.20;84.10;;;;;;4184580;28;20452;-85
2023/10/31 02:48:15;;;;;;;;;;;11.30;83.70;;;;;;4154627;28;19987;-84
2023/10/31 02:50:35;;;;;;;;;;;11.30;84.00;;;;;;4159239;28;19921;-84
2023/10/31 02:52:56;;;;;;;;;;;11.20;84.30;;;;;;4171766;28;19927;-84
2023/10/31 02:55:17;;;;;;;;;;;11.20;84.40;;;;;;4169966;28;20374;-84
2023/10/31 02:57:37;;;;;;;;;;;11.30;84.70;;;;;;4168217;28;19921;-84
2023/10/31 02:59:58;;;;;;;;;;;11.20;84.90;;;;;;4156533;28;20361;-83
2023/10/31 03:02:18;;;;;;;;;;;11.30;84.20;;;;;;4155494;28;19917;-84
2023/10/31 03:04:39;;;;;;;;;;;11.10;84.30;;;;;;4155697;28;19948;-84
2023/10/31 03:06:59;;;;;;;;;;;11.10;84.10;;;;;;4170600;28;19975;-84
2023/10/31 03:09:20;;;;;;;;;;;11.20;84.60;;;;;;4154144;28;19964;-84
2023/10/31 03:11:41;;;;;;;;;;;11.10;84.80;;;;;;4153760;28;19913;-83
2023/10/31 03:14:01;;;;;;;;;;;11.20;85.40;;;;;;4175149;28;19905;-85
2023/10/31 03:16:22;;;;;;;;;;;11.10;85.50;;;;;;4161502;28;19921;-85
2023/10/31 03:18:42;;;;;;;;;;;11.10;85.40;;;;;;4172965;28;19916;-84
2023/10/31 03:21:03;;;;;;;;;;;11.10;85.30;;;;;;4153985;28;19947;-84
2023/10/31 03:23:24;;;;;;;;;;;11.10;85.20;;;;;;4156439;28;19970;-85
2023/10/31 03:25:44;;;;;;;;;;;11.10;85.40;;;;;;4169048;28;20303;-85
2023/10/31 03:28:07;;;;;;;;;;;11.10;85.40;;;;;;4170347;28;20485;-84
2023/10/31 03:30:28;;;;;;;;;;;11.10;85.10;;;;;;4157588;28;19929;-83
2023/10/31 03:32:45;;;;;;;;;;;11.10;85.10;;;;;;4152289;28;20016;-84
2023/10/31 03:35:05;;;;;;;;;;;11.10;85.10;;;;;;4138896;28;19945;-83
2023/10/31 03:37:26;;;;;;;;;;;11.10;85.00;;;;;;4170810;28;19916;-83
2023/10/31 03:39:46;;;;;;;;;;;11.10;85.00;;;;;;4153027;28;19932;-82
2023/10/31 03:42:07;;;;;;;;;;;11.10;85.20;;;;;;4171916;28;19928;-84
2023/10/31 03:44:27;;;;;;;;;;;11.10;85.10;;;;;;4170889;28;19921;-83
2023/10/31 03:46:48;;;;;;;;;;;11.10;85.40;;;;;;4153021;28;20574;-84
2023/10/31 03:49:08;;;;;;;;;;;11.10;85.60;;;;;;4170275;28;19926;-85
2023/10/31 03:51:29;;;;;;;;;;;11.10;85.60;;;;;;4169476;28;19921;-84
2023/10/31 03:53:50;;;;;;;;;;;11.00;85.70;;;;;;4159180;28;19921;-84
2023/10/31 03:56:10;;;;;;;;;;;11.10;85.80;;;;;;4170351;28;19917;-85
2023/10/31 03:58:29;;;;;;;;;;;11.00;85.70;;;;;;4154630;28;19917;-84
2023/10/31 04:00:49;;;;;;;;;;;11.00;85.70;;;;;;4155506;28;19917;-84
2023/10/31 04:03:10;;;;;;;;;;;11.00;85.80;;;;;;4171248;28;19942;-85
2023/10/31 04:05:31;;;;;;;;;;;11.00;85.80;;;;;;4172610;28;19996;-85
2023/10/31 04:07:51;;;;;;;;;;;11.00;85.70;;;;;;4171454;28;20540;-84
2023/10/31 04:10:12;;;;;;;;;;;11.00;85.80;;;;;;4171442;28;19943;-85
2023/10/31 04:12:33;;;;;;;;;;;11.00;85.90;;;;;;4167913;28;20294;-85
2023/10/31 04:14:53;;;;;;;;;;;11.10;86.10;;;;;;4172893;28;19932;-84
2023/10/31 04:17:14;;;;;;;;;;;11.10;86.20;;;;;;4172264;28;20432;-84
2023/10/31 04:19:36;;;;;;;;;;;11.10;86.30;;;;;;4156776;28;19924;-84
2023/10/31 04:21:56;;;;;;;;;;;11.00;86.00;;;;;;4173740;28;20406;-84
2023/10/31 04:24:17;;;;;;;;;;;11.00;86.40;;;;;;4172821;28;20584;-85
2023/10/31 04:26:38;;;;;;;;;;;11.10;86.70;;;;;;4155248;28;20517;-85
2023/10/31 04:28:59;;;;;;;;;;;11.00;86.10;;;;;;4155360;28;19959;-84
2023/10/31 04:31:19;;;;;;;;;;;11.00;85.80;;;;;;4171888;28;19917;-85
2023/10/31 04:33:40;;;;;;;;;;;11.00;85.90;;;;;;4171766;28;19917;-83
2023/10/31 04:36:02;;;;;;;;;;;11.00;85.90;;;;;;4168046;28;19920;-84
2023/10/31 04:38:25;;;;;;;;;;;11.00;85.90;;;;;;4169852;28;19917;-84
2023/10/31 04:40:46;;;;;;;;;;;11.00;86.00;;;;;;4169993;28;20023;-85
2023/10/31 04:43:06;;;;;;;;;;;11.10;86.00;;;;;;4172546;28;19922;-84
2023/10/31 04:45:27;;;;;;;;;;;11.00;86.00;;;;;;4172156;28;20010;-84
2023/10/31 04:47:47;;;;;;;;;;;10.90;85.40;;;;;;4170803;28;19917;-84
2023/10/31 04:50:08;;;;;;;;;;;11.00;85.80;;;;;;4154615;28;19920;-84
2023/10/31 04:52:28;;;;;;;;;;;10.90;86.00;;;;;;4157874;28;19922;-85
2023/10/31 04:54:49;;;;;;;;;;;11.00;86.20;;;;;;4158855;28;20480;-84
2023/10/31 04:57:10;;;;;;;;;;;10.90;85.80;;;;;;4156946;28;19917;-84
2023/10/31 04:59:30;;;;;;;;;;;10.90;86.30;;;;;;4157335;28;19924;-84
2023/10/31 05:01:51;;;;;;;;;;;10.90;86.40;;;;;;4168568;28;19921;-85
2023/10/31 05:04:11;;;;;;;;;;;11.00;86.60;;;;;;4172308;28;19920;-85
2023/10/31 05:06:32;;;;;;;;;;;10.90;86.40;;;;;;4170454;28;19923;-85
2023/10/31 05:08:52;;;;;;;;;;;10.80;86.20;;;;;;4163180;28;19920;-84
2023/10/31 05:11:13;;;;;;;;;;;10.70;85.90;;;;;;4167138;28;19923;-85
2023/10/31 05:13:33;;;;;;;;;;;10.80;86.20;;;;;;4170316;28;19916;-84
2023/10/31 05:15:54;;;;;;;;;;;10.70;86.20;;;;;;4170440;28;19921;-85
2023/10/31 05:18:15;;;;;;;;;;;10.60;86.00;;;;;;4156829;28;20028;-84
2023/10/31 05:20:35;;;;;;;;;;;10.70;85.80;;;;;;4169762;28;20007;-84
2023/10/31 05:22:56;;;;;;;;;;;10.60;85.70;;;;;;4173307;28;20011;-85
2023/10/31 05:25:17;;;;;;;;;;;10.60;85.70;;;;;;4173147;28;19978;-83
2023/10/31 05:27:38;;;;;;;;;;;10.60;85.90;;;;;;4188409;28;19912;-85
2023/10/31 05:29:59;;;;;;;;;;;10.70;85.90;;;;;;4174754;28;19932;-85
2023/10/31 05:32:20;;;;;;;;;;;10.50;86.00;;;;;;4171322;28;20108;-85
2023/10/31 05:34:40;;;;;;;;;;;10.60;86.00;;;;;;4168718;28;19967;-85
2023/10/31 05:37:01;;;;;;;;;;;10.60;86.10;;;;;;4164081;28;19920;-84
2023/10/31 05:39:21;;;;;;;;;;;10.50;86.10;;;;;;4171314;28;19913;-85
2023/10/31 05:41:42;;;;;;;;;;;10.60;85.90;;;;;;4171060;28;20048;-85
2023/10/31 05:44:03;;;;;;;;;;;10.60;86.10;;;;;;4166995;28;20037;-84
2023/10/31 05:46:23;;;;;;;;;;;10.50;86.30;;;;;;4170428;28;20504;-85
2023/10/31 05:48:44;;;;;;;;;;;10.60;86.40;;;;;;4172922;28;19921;-85
2023/10/31 05:51:15;;;;;;;;;;;10.60;86.50;;;;;;4165708;28;19912;-84
2023/10/31 05:53:35;;;;;;;;;;;10.50;86.50;;;;;;4169619;28;19928;-86
2023/10/31 05:55:54;;;;;;;;;;;10.50;85.80;;;;;;4168037;28;19939;-85
2023/10/31 05:58:14;;;;;;;;;;;10.60;86.30;;;;;;4170761;28;20017;-84
2023/10/31 06:00:33;;;;;;;;;;;10.50;86.50;;;;;;4158744;28;19924;-85
2023/10/31 06:02:52;;;;;;;;;;;10.50;86.50;;;;;;4166959;28;19928;-84
2023/10/31 06:05:12;;;;;;;;;;;10.60;86.60;;;;;;4169366;28;20067;-84
2023/10/31 06:07:31;;;;;;;;;;;10.50;87.30;;;;;;4155386;28;19925;-85
2023/10/31 06:09:50;;;;;;;;;;;10.50;87.50;;;;;;4170350;28;19932;-86
2023/10/31 06:12:09;;;;;;;;;;;10.50;86.70;;;;;;4167336;28;19974;-84
2023/10/31 06:14:29;;;;;;;;;;;10.60;86.70;;;;;;4170854;28;20000;-86
2023/10/31 06:16:48;;;;;;;;;;;10.50;86.90;;;;;;4170279;28;19919;-86
2023/10/31 06:19:08;;;;;;;;;;;10.50;86.70;;;;;;4157550;28;19978;-84
2023/10/31 06:21:27;;;;;;;;;;;10.60;87.00;;;;;;4172615;28;19978;-87
2023/10/31 06:23:46;;;;;;;;;;;10.50;87.00;;;;;;4180890;28;19963;-87
2023/10/31 06:26:05;;;;;;;;;;;10.60;86.90;;;;;;4172431;28;19970;-86
2023/10/31 06:28:24;;;;;;;;;;;10.50;86.50;;;;;;4172183;28;19924;-87
2023/10/31 06:30:44;;;;;;;;;;;10.60;87.50;;;;;;4177164;28;19991;-88
2023/10/31 06:33:03;;;;;;;;;;;10.50;87.40;;;;;;4175334;28;19924;-85
2023/10/31 06:35:24;;;;;;;;;;;10.50;86.60;;;;;;4170179;28;20087;-84
2023/10/31 06:37:43;;;;;;;;;;;10.40;86.20;;;;;;4172816;28;20313;-88
2023/10/31 06:40:03;;;;;;;;;;;10.40;86.20;;;;;;4157881;28;19923;-86
2023/10/31 06:42:22;;;;;;;;;;;10.30;85.90;;;;;;4169208;28;19947;-86
2023/10/31 06:44:42;;;;;;;;;;;10.30;85.90;;;;;;4170467;28;21439;-84
2023/10/31 06:47:01;;;;;;;;;;;10.20;85.70;;;;;;4172252;28;19975;-86
2023/10/31 06:49:22;;;;;;;;;;;10.30;85.80;;;;;;4169378;28;19963;-87
2023/10/31 06:51:41;;;;;;;;;;;10.20;86.60;;;;;;4173350;28;19938;-87
2023/10/31 06:54:00;;;;;;;;;;;10.10;85.80;;;;;;4158444;28;19929;-86
2023/10/31 06:56:20;;;;;;;;;;;10.10;85.90;;;;;;4175200;28;19928;-86
2023/10/31 06:58:39;;;;;;;;;;;10.00;85.70;;;;;;4168109;28;19927;-85
2023/10/31 07:00:59;;;;;;;;;;;10.00;85.60;;;;;;4169917;28;19931;-87
2023/10/31 07:03:18;;;;;;;;;;;10.00;85.70;;;;;;4171347;28;20278;-86
2023/10/31 07:05:40;;;;;;;;;;;9.90;85.80;;;;;;4169485;28;19932;-87
2023/10/31 07:07:59;;;;;;;;;;;9.90;85.80;;;;;;4156057;28;19955;-86
2023/10/31 07:10:19;;;;;;;;;;;9.80;85.80;;;;;;4170081;28;20305;-86
2023/10/31 07:12:38;;;;;;;;;;;9.70;85.70;;;;;;4171040;28;19920;-86
2023/10/31 07:14:58;;;;;;;;;;;9.70;85.70;;;;;;4170958;28;19931;-86
2023/10/31 07:17:17;;;;;;;;;;;9.70;85.70;;;;;;4174163;28;20354;-85
2023/10/31 07:19:36;;;;;;;;;;;9.80;85.90;;;;;;4177395;28;19935;-84
2023/10/31 07:21:56;;;;;;;;;;;9.70;85.60;;;;;;4173458;28;19963;-85
2023/10/31 07:24:15;;;;;;;;;;;9.70;85.60;;;;;;4173922;28;19923;-88
2023/10/31 07:26:35;;;;;;;;;;;9.60;85.50;;;;;;4167259;28;19921;-87
2023/10/31 07:28:54;;;;;;;;;;;9.50;86.20;;;;;;4175825;28;20295;-86
2023/10/31 07:31:13;;;;;;;;;;;9.50;85.40;;;;;;4169719;28;19924;-86
2023/10/31 07:33:32;;;;;;;;;;;9.50;85.70;;;;;;4174948;28;19982;-87
2023/10/31 07:35:52;;;;;;;;;;;9.40;85.50;;;;;;4170892;28;19955;-85
2023/10/31 07:38:11;;;;;;;;;;;9.40;85.70;;;;;;4173001;28;19943;-84
2023/10/31 07:40:31;;;;;;;;;;;9.30;85.60;;;;;;4179002;28;19947;-86
2023/10/31 07:42:50;;;;;;;;;;;9.30;85.70;;;;;;4182985;28;20291;-86
2023/10/31 07:45:10;;;;;;;;;;;9.30;85.70;;;;;;4191436;28;19939;-86
2023/10/31 07:47:29;;;;;;;;;;;9.40;85.50;;;;;;4179910;28;19924;-87
2023/10/31 07:49:49;;;;;;;;;;;9.20;85.80;;;;;;4182937;28;19924;-86
2023/10/31 07:52:08;;;;;;;;;;;9.30;85.80;;;;;;4193621;28;19912;-86
2023/10/31 07:54:27;;;;;;;;;;;9.30;85.70;;;;;;4184919;28;19939;-89
2023/10/31 07:56:47;;;;;;;;;;;9.30;85.70;;;;;;4187783;28;20002;-85
2023/10/31 07:59:07;;;;;;;;;;;9.20;85.70;;;;;;4180813;28;19919;-86
2023/10/31 08:01:26;;;;;;;;;;;9.10;86.30;;;;;;4170735;28;19924;-84
2023/10/31 08:03:47;;;;;;;;;;;9.10;86.20;;;;;;4160037;28;20420;-86
2023/10/31 08:06:06;;;;;;;;;;;9.10;86.10;;;;;;4166537;28;20019;-87
2023/10/31 08:08:25;;;;;;;;;;;9.00;85.60;;;;;;4156351;28;20106;-85
2023/10/31 08:10:45;;;;;;;;;;;9.10;85.60;;;;;;4171987;28;19927;-86
2023/10/31 08:13:07;;;;;;;;;;;9.00;85.60;;;;;;4159715;28;19950;-86
2023/10/31 08:15:26;;;;;;;;;;;8.90;85.20;;;;;;4170412;28;20560;-87
2023/10/31 08:17:45;;;;;;;;;;;8.90;85.40;;;;;;4168153;28;19997;-86
2023/10/31 08:20:05;;;;;;;;;;;9.00;85.30;;;;;;4158796;28;20007;-88
2023/10/31 08:22:24;;;;;;;;;;;8.80;85.30;;;;;;4160444;28;20148;-84
2023/10/31 08:24:43;;;;;;;;;;;8.80;85.10;;;;;;4168866;28;19974;-87
2023/10/31 08:27:04;;;;;;;;;;;8.90;85.40;;;;;;4173225;28;20480;-85
2023/10/31 08:29:23;;;;;;;;;;;8.80;85.50;;;;;;4173306;28;19999;-86
2023/10/31 08:31:42;;;;;;;;;;;8.80;85.40;;;;;;4160477;28;19924;-87
2023/10/31 08:34:01;;;;;;;;;;;8.70;85.20;;;;;;4157808;28;19997;-86
2023/10/31 08:36:21;;;;;;;;;;;8.70;85.90;;;;;;4175626;28;19935;-84
2023/10/31 08:38:40;;;;;;;;;;;8.70;85.20;;;;;;4178341;28;19928;-84
2023/10/31 08:40:59;;;;;;;;;;;8.60;85.20;;;;;;4174927;28;19959;-86
2023/10/31 08:43:18;;;;;;;;;;;8.60;85.90;;;;;;4178020;28;19966;-87
2023/10/31 08:45:38;;;;;;;;;;;8.60;85.10;;;;;;4178825;28;19935;-84
2023/10/31 08:47:58;;;;;;;;;;;8.50;85.30;;;;;;4159791;28;20024;-84
2023/10/31 08:50:18;;;;;;;;;;;8.50;85.40;;;;;;4173888;28;20091;-86
2023/10/31 08:52:37;;;;;;;;;;;8.50;85.20;;;;;;4157337;28;19928;-87
2023/10/31 08:54:56;;;;;;;;;;;8.50;86.20;;;;;;4165091;28;19993;-85
2023/10/31 08:57:15;;;;;;;;;;;8.50;85.10;;;;;;4156367;28;19973;-85
2023/10/31 09:01:45;;;;;;;;;;;8.40;85.30;;;;;;3494727;26;20030;-84
2023/10/31 09:04:05;;;;;;;;;;;8.40;85.10;;;;;;4178219;28;20301;-84
2023/10/31 09:06:24;;;;;;;;;;;8.30;85.30;;;;;;4180373;28;20427;-82
2023/10/31 09:08:43;;;;;;;;;;;8.40;85.20;;;;;;4179730;28;19923;-85
2023/10/31 09:11:09;;;;;;;;;;;8.40;85.30;;;;;;4165172;28;19923;-85
2023/10/31 09:13:28;;;;;;;;;;;8.30;85.80;;;;;;4179916;28;20560;-86
2023/10/31 09:15:49;;;;;;;;;;;8.30;85.60;;;;;;4170961;28;20001;-85
2023/10/31 09:18:08;;;;;;;;;;;8.20;86.10;;;;;;4169466;28;19927;-85
2023/10/31 09:20:31;;;;;;;;;;;8.20;85.40;;;;;;4172199;28;19982;-86
2023/10/31 09:22:50;;;;;;;;;;;8.40;85.50;;;;;;4183449;28;19931;-85
2023/10/31 09:25:10;;;;;;;;;;;8.30;85.50;;;;;;4182606;28;20385;-85
2023/10/31 09:27:29;;;;;;;;;;;8.20;85.10;;;;;;4184406;28;20609;-85
2023/10/31 09:29:49;;;;;;;;;;;8.10;84.90;;;;;;4187438;28;19986;-84
2023/10/31 09:32:08;;;;;;;;;;;8.10;84.80;;;;;;4181927;28;19971;-86
2023/10/31 09:34:27;;;;;;;;;;;8.10;84.80;;;;;;4184371;28;20377;-85
2023/10/31 09:36:47;;;;;;;;;;;8.00;85.30;;;;;;4185476;28;19996;-86
2023/10/31 09:39:06;;;;;;;;;;;8.10;84.50;;;;;;4169625;28;20452;-86
2023/10/31 09:41:25;;;;;;;;;;;8.10;84.50;;;;;;4174063;28;20452;-85
2023/10/31 09:43:44;;;;;;;;;;;7.90;84.40;;;;;;4170109;28;20390;-86
2023/10/31 09:46:05;;;;;;;;;;;8.00;84.50;;;;;;4186950;28;19959;-85
2023/10/31 09:48:24;;;;;;;;;;;7.80;84.90;;;;;;4183545;28;19983;-85
2023/10/31 09:50:44;;;;;;;;;;;7.70;84.10;;;;;;4187157;28;19927;-86
2023/10/31 09:53:04;;;;;;;;;;;7.70;84.10;;;;;;4183846;28;19919;-86
2023/10/31 09:55:24;;;;;;;;;;;7.80;84.20;;;;;;4168622;28;19940;-85
2023/10/31 09:57:43;;;;;;;;;;;7.70;84.80;;;;;;4170923;28;20016;-86
2023/10/31 11:26:11;;;;;;;;;;;6.40;83.40;;;;;;4045103;29;20084;-84
2023/10/31 11:28:32;;;;;;;;;;;6.30;84.20;;;;;;4050988;29;20359;-84
2023/10/31 11:30:58;;;;;;;;;;;6.40;83.60;;;;;;4052872;29;19938;-84
2023/10/31 11:33:21;;;;;;;;;;;6.30;83.30;;;;;;4049795;29;20691;-84
2023/10/31 11:35:41;;;;;;;;;;;6.30;83.20;;;;;;4057674;29;19945;-84
2023/10/31 11:38:03;;;;;;;;;;;6.30;83.30;;;;;;4045601;29;19931;-84
2023/10/31 11:40:25;;;;;;;;;;;6.30;83.40;;;;;;4050965;29;19995;-83
2023/10/31 11:42:54;;;;;;;;;;;6.30;83.30;;;;;;4042365;29;19980;-83
2023/10/31 11:45:27;;;;;;;;;;;6.20;83.10;;;;;;4058915;29;19930;-82
2023/10/31 11:47:50;;;;;;;;;;;6.30;83.30;;;;;;4069355;29;19926;-83
2023/10/31 11:49:56;;;;;;;;;;;6.20;84.10;;;;;;4020225;29;20015;-82
2023/10/31 11:51:56;;;;;;;;;;;6.20;83.40;;;;;;4055703;29;19919;-83
2023/10/31 11:53:58;;;;;;;;;;;6.30;83.40;;;;;;4054959;29;20002;-84
2023/10/31 11:55:59;;;;;;;;;;;6.20;83.20;;;;;;4072250;29;19926;-82
2023/10/31 11:58:15;;;;;;;;;;;6.20;83.20;;;;;;4025325;29;19923;-84
2023/10/31 12:00:24;;;;;;;;;;;6.10;84.00;;;;;;4042540;29;19993;-83
2023/10/31 12:02:28;;;;;;;;;;;6.10;82.90;;;;;;4077913;29;19983;-83
2023/10/31 12:04:32;;;;;;;;;;;6.10;83.20;;;;;;4063907;29;19915;-83
2023/10/31 12:06:32;;;;;;;;;;;6.10;83.20;;;;;;4046764;29;19963;-83
2023/10/31 12:08:35;;;;;;;;;;;6.20;83.30;;;;;;4055978;29;20491;-83
2023/10/31 12:10:47;;;;;;;;;;;6.10;83.40;;;;;;4042143;29;19923;-84
2023/10/31 12:13:14;;;;;;;;;;;6.10;83.10;;;;;;4045436;29;19924;-84
2023/10/31 12:15:20;;;;;;;;;;;6.10;83.30;;;;;;4043658;29;19920;-83
2023/10/31 12:17:40;;;;;;;;;;;6.00;83.10;;;;;;4064411;29;19919;-82
2023/10/31 12:20:05;;;;;;;;;;;6.10;83.10;;;;;;4076996;29;19957;-83
2023/10/31 12:22:15;;;;;;;;;;;6.00;83.00;;;;;;4075380;29;19923;-82
2023/10/31 12:24:36;;;;;;;;;;;6.00;82.90;;;;;;4059580;29;19923;-83
2023/10/31 12:27:00;;;;;;;;;;;6.00;82.80;;;;;;4051545;29;20591;-83
2023/10/31 12:29:31;;;;;;;;;;;6.00;82.80;;;;;;4044188;29;20013;-83
2023/10/31 12:31:53;;;;;;;;;;;6.00;82.80;;;;;;4048698;29;19959;-82
2023/10/31 12:34:16;;;;;;;;;;;6.00;82.80;;;;;;4059337;29;21253;-83
2023/10/31 12:36:38;;;;;;;;;;;5.90;82.80;;;;;;4046157;29;19946;-82
2023/10/31 12:38:59;;;;;;;;;;;6.00;82.60;;;;;;4069435;29;19919;-82
2023/10/31 12:41:25;;;;;;;;;;;6.00;82.60;;;;;;4071776;29;19990;-82
2023/10/31 12:43:46;;;;;;;;;;;6.00;82.80;;;;;;4057177;29;19946;-82
2023/10/31 12:46:26;;;;;;;;;;;5.90;82.50;;;;;;4055110;29;19919;-83
2023/10/31 12:48:46;;;;;;;;;;;5.90;82.50;;;;;;4060340;29;19975;-82
2023/10/31 12:51:12;;;;;;;;;;;5.90;82.40;;;;;;4063234;29;19923;-82
2023/10/31 12:53:34;;;;;;;;;;;5.90;82.30;;;;;;4038316;29;20338;-81
2023/10/31 12:55:55;;;;;;;;;;;6.00;82.50;;;;;;4044488;29;19919;-81
2023/10/31 12:58:23;;;;;;;;;;;6.00;82.30;;;;;;4063045;29;19923;-83
2023/10/31 13:00:48;;;;;;;;;;;5.90;82.30;;;;;;4061922;29;19961;-82
2023/10/31 13:03:08;;;;;;;;;;;6.00;82.00;;;;;;4058698;29;19999;-82
2023/10/31 13:05:29;;;;;;;;;;;5.90;82.10;;;;;;4044955;29;19919;-82
2023/10/31 13:07:52;;;;;;;;;;;6.00;81.80;;;;;;4060728;29;19923;-81
2023/10/31 13:10:12;;;;;;;;;;;5.90;81.70;;;;;;4054813;29;19925;-81
2023/10/31 13:12:35;;;;;;;;;;;5.90;82.00;;;;;;4047978;29;19924;-82
2023/10/31 13:14:56;;;;;;;;;;;5.80;81.70;;;;;;4057630;29;19919;-82
2023/10/31 13:17:19;;;;;;;;;;;5.90;81.20;;;;;;4046866;29;20090;-81
2023/10/31 13:19:40;;;;;;;;;;;5.90;80.90;;;;;;4061331;29;19923;-82
2023/10/31 13:22:01;;;;;;;;;;;5.90;81.10;;;;;;4051557;29;20014;-83
2023/10/31 13:24:21;;;;;;;;;;;5.90;81.40;;;;;;4062576;29;19919;-82
2023/10/31 13:26:44;;;;;;;;;;;5.90;81.00;;;;;;4058875;29;19970;-82
2023/10/31 13:29:05;;;;;;;;;;;5.90;81.30;;;;;;4071726;29;19922;-82
2023/10/31 13:31:28;;;;;;;;;;;5.90;81.30;;;;;;4048107;29;20544;-82
2023/10/31 13:33:51;;;;;;;;;;;5.90;80.80;;;;;;4063132;29;19923;-82
2023/10/31 13:36:12;;;;;;;;;;;5.90;81.00;;;;;;4058299;29;19958;-82
2023/10/31 13:38:32;;;;;;;;;;;6.00;81.20;;;;;;4045703;29;19923;-83
2023/10/31 13:40:53;;;;;;;;;;;6.00;80.70;;;;;;4060777;29;19931;-82
2023/10/31 13:43:13;;;;;;;;;;;5.90;80.80;;;;;;4061572;29;20564;-83
2023/10/31 13:45:34;;;;;;;;;;;6.00;80.50;;;;;;4059620;29;20031;-82
2023/10/31 13:47:54;;;;;;;;;;;6.00;80.50;;;;;;4065433;29;19919;-82
2023/10/31 13:50:15;;;;;;;;;;;6.00;80.20;;;;;;4063382;29;20647;-82
2023/10/31 13:52:37;;;;;;;;;;;6.00;79.90;;;;;;4058080;29;19922;-82
2023/10/31 13:54:58;;;;;;;;;;;5.90;79.00;;;;;;4057900;29;19919;-82
2023/10/31 13:57:22;;;;;;;;;;;6.00;79.50;;;;;;4056988;29;19923;-82
2023/10/31 13:59:42;;;;;;;;;;;5.90;79.10;;;;;;4061010;29;20010;-82
2023/10/31 14:02:03;;;;;;;;;;;6.00;79.10;;;;;;4063661;29;20194;-84
2023/10/31 14:04:36;;;;;;;;;;;5.90;79.10;;;;;;4055095;29;19930;-81
2023/10/31 14:07:02;;;;;;;;;;;5.90;79.10;;;;;;4064293;29;19919;-83
2023/10/31 14:09:30;;;;;;;;;;;5.90;78.90;;;;;;4067597;29;19923;-82
2023/10/31 14:11:50;;;;;;;;;;;5.90;79.10;;;;;;4066788;29;19923;-84
2023/10/31 14:14:13;;;;;;;;;;;5.90;78.70;;;;;;4060448;29;19931;-82
2023/10/31 14:16:34;;;;;;;;;;;5.90;78.60;;;;;;4042988;29;20530;-82
2023/10/31 14:18:55;;;;;;;;;;;6.00;78.80;;;;;;4062699;29;19990;-82
2023/10/31 14:21:15;;;;;;;;;;;5.90;78.50;;;;;;4046667;29;19931;-83
2023/10/31 14:23:39;;;;;;;;;;;5.80;78.50;;;;;;4061128;29;20023;-83
2023/10/31 14:26:00;;;;;;;;;;;5.90;78.70;;;;;;4051037;29;20018;-82
2023/10/31 14:28:26;;;;;;;;;;;5.90;78.40;;;;;;4064878;29;19927;-82
2023/10/31 14:30:49;;;;;;;;;;;5.90;78.30;;;;;;4047562;29;19946;-81
2023/10/31 14:33:13;;;;;;;;;;;5.90;78.60;;;;;;4066911;29;20072;-82
2023/10/31 14:35:38;;;;;;;;;;;5.90;79.40;;;;;;4063496;29;19960;-82
2023/10/31 14:37:58;;;;;;;;;;;5.80;79.40;;;;;;4052378;29;19933;-83
2023/10/31 14:40:17;;;;;;;;;;;5.90;78.40;;;;;;4044636;29;19934;-82
2023/10/31 14:42:44;;;;;;;;;;;6.00;78.30;;;;;;4074999;29;20022;-82
2023/10/31 14:45:04;;;;;;;;;;;5.90;77.80;;;;;;4078556;29;19959;-82
2023/10/31 14:47:23;;;;;;;;;;;5.90;77.80;;;;;;4072813;29;19991;-83
2023/10/31 14:49:43;;;;;;;;;;;6.00;77.90;;;;;;4072985;29;19930;-84
2023/10/31 14:52:04;;;;;;;;;;;5.80;78.40;;;;;;4050615;29;20054;-82
2023/10/31 14:54:24;;;;;;;;;;;5.90;77.40;;;;;;4053434;29;19959;-82
2023/10/31 14:56:46;;;;;;;;;;;5.80;77.60;;;;;;4050580;29;19999;-83
2023/10/31 14:59:05;;;;;;;;;;;5.90;76.90;;;;;;4056051;29;19926;-83